sensor_id;sensor_type;location;lat;lon;timestamp;P1;durP1;ratioP1;P2;durP2;ratioP2
13263;SDS011;6700;51.988;7.646;2024-01-30T00:00:32;16.53;;;13.33;;
13263;SDS011;6700;51.988;7.646;2024-01-30T00:02:59;15.20;;;13.52;;
13263;SDS011;6700;51.988;7.646;2024-01-30T00:05:26;18.25;;;13.45;;
13263;SDS011;6700;51.988;7.646;2024-01-30T00:07:54;15.88;;;13.50;;
13263;SDS011;6700;51.988;7.646;2024-01-30T00:10:22;15.40;;;12.88;;
13263;SDS011;6700;51.988;7.646;2024-01-30T00:12:50;16.60;;;13.32;;
13263;SDS011;6700;51.988;7.646;2024-01-30T00:15:17;17.65;;;13.32;;
13263;SDS011;6700;51.988;7.646;2024-01-30T00:17:44;15.65;;;13.27;;
13263;SDS011;6700;51.988;7.646;2024-01-30T00:20:11;18.10;;;14.07;;
13263;SDS011;6700;51.988;7.646;2024-01-30T00:22:39;17.05;;;13.00;;
13263;SDS011;6700;51.988;7.646;2024-01-30T00:25:06;17.58;;;13.30;;
13263;SDS011;6700;51.988;7.646;2024-01-30T00:27:33;18.80;;;13.45;;
13263;SDS011;6700;51.988;7.646;2024-01-30T00:30:00;16.70;;;13.10;;
13263;SDS011;6700;51.988;7.646;2024-01-30T00:32:28;16.52;;;13.63;;
13263;SDS011;6700;51.988;7.646;2024-01-30T00:34:55;18.17;;;13.65;;
13263;SDS011;6700;51.988;7.646;2024-01-30T00:37:23;16.95;;;13.95;;
13263;SDS011;6700;51.988;7.646;2024-01-30T00:39:50;15.80;;;13.48;;
13263;SDS011;6700;51.988;7.646;2024-01-30T00:42:17;18.15;;;13.75;;
13263;SDS011;6700;51.988;7.646;2024-01-30T00:44:45;15.32;;;13.70;;
13263;SDS011;6700;51.988;7.646;2024-01-30T00:47:13;15.80;;;13.18;;
13263;SDS011;6700;51.988;7.646;2024-01-30T00:49:40;16.20;;;13.32;;
13263;SDS011;6700;51.988;7.646;2024-01-30T00:52:07;17.37;;;13.23;;
13263;SDS011;6700;51.988;7.646;2024-01-30T00:54:34;18.83;;;14.13;;
13263;SDS011;6700;51.988;7.646;2024-01-30T00:57:01;18.75;;;14.48;;
13263;SDS011;6700;51.988;7.646;2024-01-30T00:59:29;19.65;;;14.32;;
13263;SDS011;6700;51.988;7.646;2024-01-30T01:01:56;19.40;;;13.70;;
13263;SDS011;6700;51.988;7.646;2024-01-30T01:04:24;15.98;;;13.82;;
13263;SDS011;6700;51.988;7.646;2024-01-30T01:06:55;16.48;;;13.73;;
13263;SDS011;6700;51.988;7.646;2024-01-30T01:09:23;17.67;;;14.33;;
13263;SDS011;6700;51.988;7.646;2024-01-30T01:11:50;17.05;;;13.25;;
13263;SDS011;6700;51.988;7.646;2024-01-30T01:14:18;18.00;;;14.50;;
13263;SDS011;6700;51.988;7.646;2024-01-30T01:16:47;15.38;;;13.77;;
13263;SDS011;6700;51.988;7.646;2024-01-30T01:19:18;16.87;;;13.57;;
13263;SDS011;6700;51.988;7.646;2024-01-30T01:21:46;16.48;;;13.50;;
13263;SDS011;6700;51.988;7.646;2024-01-30T01:24:15;14.85;;;12.85;;
13263;SDS011;6700;51.988;7.646;2024-01-30T01:26:44;14.00;;;12.32;;
13263;SDS011;6700;51.988;7.646;2024-01-30T01:29:15;18.95;;;13.13;;
13263;SDS011;6700;51.988;7.646;2024-01-30T01:31:44;15.10;;;12.85;;
13263;SDS011;6700;51.988;7.646;2024-01-30T01:34:13;15.02;;;12.85;;
13263;SDS011;6700;51.988;7.646;2024-01-30T01:36:46;14.88;;;13.18;;
13263;SDS011;6700;51.988;7.646;2024-01-30T01:39:15;14.67;;;12.70;;
13263;SDS011;6700;51.988;7.646;2024-01-30T01:41:46;15.93;;;12.85;;
13263;SDS011;6700;51.988;7.646;2024-01-30T01:44:14;16.33;;;12.77;;
13263;SDS011;6700;51.988;7.646;2024-01-30T01:46:44;17.63;;;13.18;;
13263;SDS011;6700;51.988;7.646;2024-01-30T01:49:12;14.25;;;12.73;;
13263;SDS011;6700;51.988;7.646;2024-01-30T01:51:45;17.42;;;13.27;;
13263;SDS011;6700;51.988;7.646;2024-01-30T01:54:14;14.30;;;12.15;;
13263;SDS011;6700;51.988;7.646;2024-01-30T01:56:48;15.10;;;12.95;;
13263;SDS011;6700;51.988;7.646;2024-01-30T01:59:54;15.18;;;12.30;;
13263;SDS011;6700;51.988;7.646;2024-01-30T02:02:21;14.30;;;11.40;;
13263;SDS011;6700;51.988;7.646;2024-01-30T02:04:51;16.52;;;13.25;;
13263;SDS011;6700;51.988;7.646;2024-01-30T02:07:21;16.25;;;13.05;;
13263;SDS011;6700;51.988;7.646;2024-01-30T02:09:49;14.50;;;12.20;;
13263;SDS011;6700;51.988;7.646;2024-01-30T02:12:18;18.17;;;13.43;;
13263;SDS011;6700;51.988;7.646;2024-01-30T02:14:46;15.88;;;12.95;;
13263;SDS011;6700;51.988;7.646;2024-01-30T02:17:17;18.05;;;13.52;;
13263;SDS011;6700;51.988;7.646;2024-01-30T02:19:45;14.40;;;12.50;;
13263;SDS011;6700;51.988;7.646;2024-01-30T02:22:13;15.40;;;12.27;;
13263;SDS011;6700;51.988;7.646;2024-01-30T02:24:41;15.48;;;12.50;;
13263;SDS011;6700;51.988;7.646;2024-01-30T02:27:09;16.40;;;13.43;;
13263;SDS011;6700;51.988;7.646;2024-01-30T02:29:37;15.77;;;13.18;;
13263;SDS011;6700;51.988;7.646;2024-01-30T02:32:05;16.20;;;13.18;;
13263;SDS011;6700;51.988;7.646;2024-01-30T02:34:34;16.23;;;12.50;;
13263;SDS011;6700;51.988;7.646;2024-01-30T02:37:03;15.10;;;12.23;;
13263;SDS011;6700;51.988;7.646;2024-01-30T02:39:36;14.45;;;12.95;;
13263;SDS011;6700;51.988;7.646;2024-01-30T02:42:09;16.60;;;12.82;;
13263;SDS011;6700;51.988;7.646;2024-01-30T02:44:37;13.93;;;11.95;;
13263;SDS011;6700;51.988;7.646;2024-01-30T02:47:04;13.47;;;12.03;;
13263;SDS011;6700;51.988;7.646;2024-01-30T02:50:13;14.43;;;12.23;;
13263;SDS011;6700;51.988;7.646;2024-01-30T02:52:58;15.20;;;12.05;;
13263;SDS011;6700;51.988;7.646;2024-01-30T02:55:42;14.00;;;12.13;;
13263;SDS011;6700;51.988;7.646;2024-01-30T02:58:29;16.33;;;11.68;;
13263;SDS011;6700;51.988;7.646;2024-01-30T03:01:10;15.13;;;11.52;;
13263;SDS011;6700;51.988;7.646;2024-01-30T03:03:48;12.98;;;11.23;;
13263;SDS011;6700;51.988;7.646;2024-01-30T03:06:16;13.40;;;11.52;;
13263;SDS011;6700;51.988;7.646;2024-01-30T03:08:46;15.25;;;12.55;;
13263;SDS011;6700;51.988;7.646;2024-01-30T03:11:15;15.45;;;12.68;;
13263;SDS011;6700;51.988;7.646;2024-01-30T03:13:44;16.50;;;12.40;;
13263;SDS011;6700;51.988;7.646;2024-01-30T03:16:11;15.27;;;12.48;;
13263;SDS011;6700;51.988;7.646;2024-01-30T03:18:40;15.25;;;12.77;;
13263;SDS011;6700;51.988;7.646;2024-01-30T03:21:07;14.47;;;12.57;;
13263;SDS011;6700;51.988;7.646;2024-01-30T03:23:35;14.43;;;12.20;;
13263;SDS011;6700;51.988;7.646;2024-01-30T03:26:03;15.48;;;12.27;;
13263;SDS011;6700;51.988;7.646;2024-01-30T03:28:33;13.40;;;12.02;;
13263;SDS011;6700;51.988;7.646;2024-01-30T03:31:01;16.77;;;12.18;;
13263;SDS011;6700;51.988;7.646;2024-01-30T03:36:15;15.77;;;12.32;;
13263;SDS011;6700;51.988;7.646;2024-01-30T03:39:01;14.50;;;11.80;;
13263;SDS011;6700;51.988;7.646;2024-01-30T03:42:01;15.65;;;12.02;;
13263;SDS011;6700;51.988;7.646;2024-01-30T03:44:35;14.50;;;11.60;;
13263;SDS011;6700;51.988;7.646;2024-01-30T03:47:08;14.57;;;11.90;;
13263;SDS011;6700;51.988;7.646;2024-01-30T03:50:13;14.48;;;11.85;;
13263;SDS011;6700;51.988;7.646;2024-01-30T03:52:40;13.30;;;11.90;;
13263;SDS011;6700;51.988;7.646;2024-01-30T03:55:08;15.48;;;12.23;;
13263;SDS011;6700;51.988;7.646;2024-01-30T03:57:36;13.65;;;12.27;;
13263;SDS011;6700;51.988;7.646;2024-01-30T04:00:03;13.32;;;11.93;;
13263;SDS011;6700;51.988;7.646;2024-01-30T04:02:31;13.30;;;11.55;;
13263;SDS011;6700;51.988;7.646;2024-01-30T04:04:59;13.03;;;11.60;;
13263;SDS011;6700;51.988;7.646;2024-01-30T04:07:26;16.45;;;12.48;;
13263;SDS011;6700;51.988;7.646;2024-01-30T04:09:53;15.47;;;11.47;;
13263;SDS011;6700;51.988;7.646;2024-01-30T04:12:21;14.30;;;11.00;;
13263;SDS011;6700;51.988;7.646;2024-01-30T04:14:48;13.05;;;11.23;;
13263;SDS011;6700;51.988;7.646;2024-01-30T04:17:16;13.63;;;11.63;;
13263;SDS011;6700;51.988;7.646;2024-01-30T04:19:43;14.45;;;11.32;;
13263;SDS011;6700;51.988;7.646;2024-01-30T04:22:11;14.97;;;11.20;;
13263;SDS011;6700;51.988;7.646;2024-01-30T04:27:15;15.25;;;11.88;;
13263;SDS011;6700;51.988;7.646;2024-01-30T04:29:43;15.38;;;11.75;;
13263;SDS011;6700;51.988;7.646;2024-01-30T04:32:12;14.45;;;11.43;;
13263;SDS011;6700;51.988;7.646;2024-01-30T04:34:39;16.52;;;12.50;;
13263;SDS011;6700;51.988;7.646;2024-01-30T04:37:07;14.25;;;11.65;;
13263;SDS011;6700;51.988;7.646;2024-01-30T04:39:35;13.57;;;11.75;;
13263;SDS011;6700;51.988;7.646;2024-01-30T04:42:03;16.23;;;12.13;;
13263;SDS011;6700;51.988;7.646;2024-01-30T04:44:34;14.45;;;12.20;;
13263;SDS011;6700;51.988;7.646;2024-01-30T04:47:02;14.95;;;12.32;;
13263;SDS011;6700;51.988;7.646;2024-01-30T04:49:29;14.32;;;11.35;;
13263;SDS011;6700;51.988;7.646;2024-01-30T04:51:57;14.03;;;12.40;;
13263;SDS011;6700;51.988;7.646;2024-01-30T04:54:25;13.20;;;11.80;;
13263;SDS011;6700;51.988;7.646;2024-01-30T04:56:52;13.68;;;12.18;;
13263;SDS011;6700;51.988;7.646;2024-01-30T04:59:19;14.37;;;11.87;;
13263;SDS011;6700;51.988;7.646;2024-01-30T05:01:47;14.48;;;11.77;;
13263;SDS011;6700;51.988;7.646;2024-01-30T05:04:14;14.98;;;12.05;;
13263;SDS011;6700;51.988;7.646;2024-01-30T05:06:42;14.57;;;12.27;;
13263;SDS011;6700;51.988;7.646;2024-01-30T05:09:10;12.38;;;11.10;;
13263;SDS011;6700;51.988;7.646;2024-01-30T05:11:37;13.33;;;11.70;;
13263;SDS011;6700;51.988;7.646;2024-01-30T05:14:05;14.05;;;11.65;;
13263;SDS011;6700;51.988;7.646;2024-01-30T05:16:32;15.75;;;11.80;;
13263;SDS011;6700;51.988;7.646;2024-01-30T05:19:00;15.57;;;11.67;;
13263;SDS011;6700;51.988;7.646;2024-01-30T05:21:29;13.95;;;11.52;;
13263;SDS011;6700;51.988;7.646;2024-01-30T05:23:56;14.48;;;11.95;;
13263;SDS011;6700;51.988;7.646;2024-01-30T05:26:23;15.45;;;12.18;;
13263;SDS011;6700;51.988;7.646;2024-01-30T05:28:53;13.73;;;12.13;;
13263;SDS011;6700;51.988;7.646;2024-01-30T05:31:20;13.33;;;11.93;;
13263;SDS011;6700;51.988;7.646;2024-01-30T05:33:47;13.20;;;11.32;;
13263;SDS011;6700;51.988;7.646;2024-01-30T05:36:15;14.48;;;12.48;;
13263;SDS011;6700;51.988;7.646;2024-01-30T05:38:42;16.30;;;11.75;;
13263;SDS011;6700;51.988;7.646;2024-01-30T05:41:09;15.90;;;12.63;;
13263;SDS011;6700;51.988;7.646;2024-01-30T05:43:37;16.73;;;13.30;;
13263;SDS011;6700;51.988;7.646;2024-01-30T05:46:04;16.73;;;12.90;;
13263;SDS011;6700;51.988;7.646;2024-01-30T05:48:31;16.35;;;13.77;;
13263;SDS011;6700;51.988;7.646;2024-01-30T05:50:59;14.23;;;12.73;;
13263;SDS011;6700;51.988;7.646;2024-01-30T05:53:27;17.95;;;12.98;;
13263;SDS011;6700;51.988;7.646;2024-01-30T05:55:55;16.65;;;12.70;;
13263;SDS011;6700;51.988;7.646;2024-01-30T05:58:23;14.27;;;12.20;;
13263;SDS011;6700;51.988;7.646;2024-01-30T06:00:51;16.57;;;12.60;;
13263;SDS011;6700;51.988;7.646;2024-01-30T06:03:19;15.32;;;12.43;;
13263;SDS011;6700;51.988;7.646;2024-01-30T06:05:48;15.90;;;12.07;;
13263;SDS011;6700;51.988;7.646;2024-01-30T06:08:15;14.60;;;11.52;;
13263;SDS011;6700;51.988;7.646;2024-01-30T06:10:45;14.95;;;12.05;;
13263;SDS011;6700;51.988;7.646;2024-01-30T06:13:15;15.10;;;11.60;;
13263;SDS011;6700;51.988;7.646;2024-01-30T06:15:43;13.82;;;11.45;;
13263;SDS011;6700;51.988;7.646;2024-01-30T06:18:13;17.23;;;12.30;;
13263;SDS011;6700;51.988;7.646;2024-01-30T06:20:42;16.00;;;12.52;;
13263;SDS011;6700;51.988;7.646;2024-01-30T06:23:12;15.05;;;12.60;;
13263;SDS011;6700;51.988;7.646;2024-01-30T06:25:42;17.58;;;12.35;;
13263;SDS011;6700;51.988;7.646;2024-01-30T06:28:11;17.00;;;12.02;;
13263;SDS011;6700;51.988;7.646;2024-01-30T06:30:40;13.52;;;11.82;;
13263;SDS011;6700;51.988;7.646;2024-01-30T06:33:08;15.10;;;12.35;;
13263;SDS011;6700;51.988;7.646;2024-01-30T06:35:36;13.17;;;10.97;;
13263;SDS011;6700;51.988;7.646;2024-01-30T06:38:10;13.13;;;11.23;;
13263;SDS011;6700;51.988;7.646;2024-01-30T06:40:38;14.48;;;11.13;;
13263;SDS011;6700;51.988;7.646;2024-01-30T06:43:06;15.13;;;10.83;;
13263;SDS011;6700;51.988;7.646;2024-01-30T06:45:35;14.23;;;11.10;;
13263;SDS011;6700;51.988;7.646;2024-01-30T06:48:04;13.02;;;11.38;;
13263;SDS011;6700;51.988;7.646;2024-01-30T06:50:32;13.67;;;11.30;;
13263;SDS011;6700;51.988;7.646;2024-01-30T06:53:00;12.90;;;10.93;;
13263;SDS011;6700;51.988;7.646;2024-01-30T06:55:27;17.33;;;11.85;;
13263;SDS011;6700;51.988;7.646;2024-01-30T06:57:55;14.40;;;11.23;;
13263;SDS011;6700;51.988;7.646;2024-01-30T07:00:23;15.50;;;11.57;;
13263;SDS011;6700;51.988;7.646;2024-01-30T07:02:50;14.57;;;11.65;;
13263;SDS011;6700;51.988;7.646;2024-01-30T07:05:18;15.18;;;11.20;;
13263;SDS011;6700;51.988;7.646;2024-01-30T07:07:45;15.63;;;10.77;;
13263;SDS011;6700;51.988;7.646;2024-01-30T07:10:13;16.00;;;11.35;;
13263;SDS011;6700;51.988;7.646;2024-01-30T07:12:40;15.35;;;11.80;;
13263;SDS011;6700;51.988;7.646;2024-01-30T07:15:10;13.18;;;11.32;;
13263;SDS011;6700;51.988;7.646;2024-01-30T07:17:42;13.55;;;11.63;;
13263;SDS011;6700;51.988;7.646;2024-01-30T07:20:10;20.80;;;13.32;;
13263;SDS011;6700;51.988;7.646;2024-01-30T07:22:43;14.65;;;11.88;;
13263;SDS011;6700;51.988;7.646;2024-01-30T07:25:11;14.43;;;11.65;;
13263;SDS011;6700;51.988;7.646;2024-01-30T07:27:39;15.45;;;11.98;;
13263;SDS011;6700;51.988;7.646;2024-01-30T07:30:07;14.55;;;11.18;;
13263;SDS011;6700;51.988;7.646;2024-01-30T07:32:35;13.90;;;12.02;;
13263;SDS011;6700;51.988;7.646;2024-01-30T07:35:03;15.50;;;11.32;;
13263;SDS011;6700;51.988;7.646;2024-01-30T07:37:34;15.85;;;11.10;;
13263;SDS011;6700;51.988;7.646;2024-01-30T07:40:04;14.35;;;11.38;;
13263;SDS011;6700;51.988;7.646;2024-01-30T07:42:33;13.80;;;10.63;;
13263;SDS011;6700;51.988;7.646;2024-01-30T07:45:01;13.15;;;10.30;;
13263;SDS011;6700;51.988;7.646;2024-01-30T07:47:28;13.60;;;11.45;;
13263;SDS011;6700;51.988;7.646;2024-01-30T07:49:56;12.90;;;10.10;;
13263;SDS011;6700;51.988;7.646;2024-01-30T07:52:23;13.18;;;11.10;;
13263;SDS011;6700;51.988;7.646;2024-01-30T07:54:51;13.85;;;10.57;;
13263;SDS011;6700;51.988;7.646;2024-01-30T07:57:19;14.93;;;11.02;;
13263;SDS011;6700;51.988;7.646;2024-01-30T07:59:46;16.25;;;11.90;;
13263;SDS011;6700;51.988;7.646;2024-01-30T08:02:14;17.58;;;12.90;;
13263;SDS011;6700;51.988;7.646;2024-01-30T08:04:42;16.83;;;12.82;;
13263;SDS011;6700;51.988;7.646;2024-01-30T08:07:09;15.53;;;13.27;;
13263;SDS011;6700;51.988;7.646;2024-01-30T08:09:37;14.27;;;12.73;;
13263;SDS011;6700;51.988;7.646;2024-01-30T08:12:04;16.23;;;12.65;;
13263;SDS011;6700;51.988;7.646;2024-01-30T08:14:31;14.10;;;12.32;;
13263;SDS011;6700;51.988;7.646;2024-01-30T08:16:59;14.32;;;12.35;;
13263;SDS011;6700;51.988;7.646;2024-01-30T08:19:26;18.37;;;12.63;;
13263;SDS011;6700;51.988;7.646;2024-01-30T08:21:53;13.73;;;11.95;;
13263;SDS011;6700;51.988;7.646;2024-01-30T08:24:21;14.45;;;12.38;;
13263;SDS011;6700;51.988;7.646;2024-01-30T08:26:49;14.60;;;11.98;;
13263;SDS011;6700;51.988;7.646;2024-01-30T08:29:16;14.55;;;11.18;;
13263;SDS011;6700;51.988;7.646;2024-01-30T08:31:43;14.10;;;10.68;;
13263;SDS011;6700;51.988;7.646;2024-01-30T08:34:12;14.70;;;11.18;;
13263;SDS011;6700;51.988;7.646;2024-01-30T08:36:39;12.13;;;10.75;;
13263;SDS011;6700;51.988;7.646;2024-01-30T08:39:07;12.55;;;10.57;;
13263;SDS011;6700;51.988;7.646;2024-01-30T08:41:34;12.68;;;10.65;;
13263;SDS011;6700;51.988;7.646;2024-01-30T08:44:01;12.00;;;9.88;;
13263;SDS011;6700;51.988;7.646;2024-01-30T08:46:29;11.95;;;9.25;;
13263;SDS011;6700;51.988;7.646;2024-01-30T08:48:57;10.65;;;9.52;;
13263;SDS011;6700;51.988;7.646;2024-01-30T08:51:24;12.27;;;10.30;;
13263;SDS011;6700;51.988;7.646;2024-01-30T08:53:51;12.00;;;10.63;;
13263;SDS011;6700;51.988;7.646;2024-01-30T08:56:20;13.20;;;10.00;;
13263;SDS011;6700;51.988;7.646;2024-01-30T08:58:47;13.77;;;10.32;;
13263;SDS011;6700;51.988;7.646;2024-01-30T09:01:14;11.77;;;10.00;;
13263;SDS011;6700;51.988;7.646;2024-01-30T09:03:42;11.23;;;9.15;;
13263;SDS011;6700;51.988;7.646;2024-01-30T09:06:12;12.23;;;9.30;;
13263;SDS011;6700;51.988;7.646;2024-01-30T09:08:39;10.80;;;9.32;;
13263;SDS011;6700;51.988;7.646;2024-01-30T09:11:13;11.93;;;9.20;;
13263;SDS011;6700;51.988;7.646;2024-01-30T09:13:40;11.98;;;8.95;;
13263;SDS011;6700;51.988;7.646;2024-01-30T09:16:08;11.53;;;9.07;;
13263;SDS011;6700;51.988;7.646;2024-01-30T09:18:35;10.90;;;9.10;;
13263;SDS011;6700;51.988;7.646;2024-01-30T09:21:03;11.93;;;8.43;;
13263;SDS011;6700;51.988;7.646;2024-01-30T09:23:30;11.07;;;8.75;;
13263;SDS011;6700;51.988;7.646;2024-01-30T09:25:57;9.75;;;8.25;;
13263;SDS011;6700;51.988;7.646;2024-01-30T09:28:25;12.03;;;8.90;;
13263;SDS011;6700;51.988;7.646;2024-01-30T09:30:53;9.60;;;7.97;;
13263;SDS011;6700;51.988;7.646;2024-01-30T09:33:20;10.05;;;8.68;;
13263;SDS011;6700;51.988;7.646;2024-01-30T09:35:49;12.65;;;9.40;;
13263;SDS011;6700;51.988;7.646;2024-01-30T09:38:17;14.43;;;8.95;;
13263;SDS011;6700;51.988;7.646;2024-01-30T09:40:44;10.03;;;8.17;;
13263;SDS011;6700;51.988;7.646;2024-01-30T09:43:17;10.13;;;8.30;;
13263;SDS011;6700;51.988;7.646;2024-01-30T09:45:49;11.00;;;8.82;;
13263;SDS011;6700;51.988;7.646;2024-01-30T09:48:17;9.93;;;7.60;;
13263;SDS011;6700;51.988;7.646;2024-01-30T09:50:44;9.52;;;8.00;;
13263;SDS011;6700;51.988;7.646;2024-01-30T09:53:13;11.63;;;8.10;;
13263;SDS011;6700;51.988;7.646;2024-01-30T09:55:42;9.90;;;7.57;;
13263;SDS011;6700;51.988;7.646;2024-01-30T09:58:11;9.90;;;7.63;;
13263;SDS011;6700;51.988;7.646;2024-01-30T10:00:39;9.00;;;7.65;;
13263;SDS011;6700;51.988;7.646;2024-01-30T10:03:07;9.65;;;7.72;;
13263;SDS011;6700;51.988;7.646;2024-01-30T10:05:35;13.90;;;8.77;;
13263;SDS011;6700;51.988;7.646;2024-01-30T10:08:06;14.38;;;8.10;;
13263;SDS011;6700;51.988;7.646;2024-01-30T10:10:34;15.20;;;8.02;;
13263;SDS011;6700;51.988;7.646;2024-01-30T10:13:02;12.27;;;7.53;;
13263;SDS011;6700;51.988;7.646;2024-01-30T10:15:31;10.95;;;7.90;;
13263;SDS011;6700;51.988;7.646;2024-01-30T10:17:58;11.13;;;7.60;;
13263;SDS011;6700;51.988;7.646;2024-01-30T10:20:25;10.07;;;7.88;;
13263;SDS011;6700;51.988;7.646;2024-01-30T10:22:53;8.98;;;7.18;;
13263;SDS011;6700;51.988;7.646;2024-01-30T10:25:21;11.70;;;8.30;;
13263;SDS011;6700;51.988;7.646;2024-01-30T10:27:52;10.57;;;8.18;;
13263;SDS011;6700;51.988;7.646;2024-01-30T10:30:21;10.65;;;7.65;;
13263;SDS011;6700;51.988;7.646;2024-01-30T10:32:49;10.95;;;7.80;;
13263;SDS011;6700;51.988;7.646;2024-01-30T10:35:16;8.95;;;7.45;;
13263;SDS011;6700;51.988;7.646;2024-01-30T10:37:43;9.38;;;7.20;;
13263;SDS011;6700;51.988;7.646;2024-01-30T10:40:13;9.93;;;7.18;;
13263;SDS011;6700;51.988;7.646;2024-01-30T10:42:45;9.45;;;7.05;;
13263;SDS011;6700;51.988;7.646;2024-01-30T10:45:13;10.48;;;7.72;;
13263;SDS011;6700;51.988;7.646;2024-01-30T10:47:52;9.68;;;7.15;;
13263;SDS011;6700;51.988;7.646;2024-01-30T10:50:20;10.03;;;7.27;;
13263;SDS011;6700;51.988;7.646;2024-01-30T10:52:48;10.35;;;7.57;;
13263;SDS011;6700;51.988;7.646;2024-01-30T10:55:16;9.47;;;6.73;;
13263;SDS011;6700;51.988;7.646;2024-01-30T10:57:44;10.35;;;7.45;;
13263;SDS011;6700;51.988;7.646;2024-01-30T11:00:12;8.07;;;6.90;;
13263;SDS011;6700;51.988;7.646;2024-01-30T11:02:43;10.27;;;7.03;;
13263;SDS011;6700;51.988;7.646;2024-01-30T11:05:11;10.05;;;7.35;;
13263;SDS011;6700;51.988;7.646;2024-01-30T11:07:39;9.80;;;7.22;;
13263;SDS011;6700;51.988;7.646;2024-01-30T11:10:08;8.43;;;7.15;;
13263;SDS011;6700;51.988;7.646;2024-01-30T11:12:39;10.73;;;7.20;;
13263;SDS011;6700;51.988;7.646;2024-01-30T11:15:14;7.60;;;6.85;;
13263;SDS011;6700;51.988;7.646;2024-01-30T11:20:20;7.80;;;6.82;;
13263;SDS011;6700;51.988;7.646;2024-01-30T11:22:50;9.10;;;6.65;;
13263;SDS011;6700;51.988;7.646;2024-01-30T11:25:19;10.65;;;7.28;;
13263;SDS011;6700;51.988;7.646;2024-01-30T11:27:47;9.60;;;7.03;;
13263;SDS011;6700;51.988;7.646;2024-01-30T11:30:26;9.20;;;6.60;;
13263;SDS011;6700;51.988;7.646;2024-01-30T11:33:00;7.93;;;6.55;;
13263;SDS011;6700;51.988;7.646;2024-01-30T11:35:34;9.52;;;6.88;;
13263;SDS011;6700;51.988;7.646;2024-01-30T11:38:11;9.77;;;6.60;;
13263;SDS011;6700;51.988;7.646;2024-01-30T11:40:40;11.88;;;6.70;;
13263;SDS011;6700;51.988;7.646;2024-01-30T11:43:08;9.43;;;6.75;;
13263;SDS011;6700;51.988;7.646;2024-01-30T11:45:36;9.05;;;6.63;;
13263;SDS011;6700;51.988;7.646;2024-01-30T11:48:04;9.57;;;6.63;;
13263;SDS011;6700;51.988;7.646;2024-01-30T11:50:33;9.70;;;6.30;;
13263;SDS011;6700;51.988;7.646;2024-01-30T11:53:01;8.60;;;6.22;;
13263;SDS011;6700;51.988;7.646;2024-01-30T11:55:29;10.07;;;6.63;;
13263;SDS011;6700;51.988;7.646;2024-01-30T11:58:01;12.02;;;7.13;;
13263;SDS011;6700;51.988;7.646;2024-01-30T12:00:30;9.90;;;6.45;;
13263;SDS011;6700;51.988;7.646;2024-01-30T12:03:00;6.88;;;6.10;;
13263;SDS011;6700;51.988;7.646;2024-01-30T12:05:28;8.18;;;6.30;;
13263;SDS011;6700;51.988;7.646;2024-01-30T12:07:56;9.30;;;6.47;;
13263;SDS011;6700;51.988;7.646;2024-01-30T12:10:26;11.10;;;6.80;;
13263;SDS011;6700;51.988;7.646;2024-01-30T12:12:54;11.18;;;6.40;;
13263;SDS011;6700;51.988;7.646;2024-01-30T12:15:22;9.98;;;6.22;;
13263;SDS011;6700;51.988;7.646;2024-01-30T12:17:49;9.57;;;6.65;;
13263;SDS011;6700;51.988;7.646;2024-01-30T12:20:18;9.35;;;6.53;;
13263;SDS011;6700;51.988;7.646;2024-01-30T12:22:47;10.00;;;6.35;;
13263;SDS011;6700;51.988;7.646;2024-01-30T12:25:15;11.73;;;6.60;;
13263;SDS011;6700;51.988;7.646;2024-01-30T12:27:43;10.07;;;5.93;;
13263;SDS011;6700;51.988;7.646;2024-01-30T12:30:12;9.25;;;6.10;;
13263;SDS011;6700;51.988;7.646;2024-01-30T12:32:40;11.95;;;6.68;;
13263;SDS011;6700;51.988;7.646;2024-01-30T12:35:12;8.40;;;6.43;;
13263;SDS011;6700;51.988;7.646;2024-01-30T12:37:40;8.10;;;6.43;;
13263;SDS011;6700;51.988;7.646;2024-01-30T12:40:08;9.10;;;6.43;;
13263;SDS011;6700;51.988;7.646;2024-01-30T12:42:36;7.72;;;6.18;;
13263;SDS011;6700;51.988;7.646;2024-01-30T12:45:03;7.53;;;6.07;;
13263;SDS011;6700;51.988;7.646;2024-01-30T12:47:31;8.38;;;6.10;;
13263;SDS011;6700;51.988;7.646;2024-01-30T12:49:58;10.18;;;6.63;;
13263;SDS011;6700;51.988;7.646;2024-01-30T12:52:26;12.02;;;6.60;;
13263;SDS011;6700;51.988;7.646;2024-01-30T12:54:53;11.53;;;6.93;;
13263;SDS011;6700;51.988;7.646;2024-01-30T12:57:20;9.45;;;6.22;;
13263;SDS011;6700;51.988;7.646;2024-01-30T12:59:48;8.90;;;6.82;;
13263;SDS011;6700;51.988;7.646;2024-01-30T13:02:15;8.80;;;7.18;;
13263;SDS011;6700;51.988;7.646;2024-01-30T13:04:43;8.13;;;6.47;;
13263;SDS011;6700;51.988;7.646;2024-01-30T13:07:15;10.05;;;7.43;;
13263;SDS011;6700;51.988;7.646;2024-01-30T13:09:42;9.65;;;6.60;;
13263;SDS011;6700;51.988;7.646;2024-01-30T13:12:10;8.85;;;7.10;;
13263;SDS011;6700;51.988;7.646;2024-01-30T13:14:37;10.30;;;6.85;;
13263;SDS011;6700;51.988;7.646;2024-01-30T13:17:04;9.75;;;6.68;;
13263;SDS011;6700;51.988;7.646;2024-01-30T13:19:32;13.35;;;6.75;;
13263;SDS011;6700;51.988;7.646;2024-01-30T13:21:59;11.70;;;7.07;;
13263;SDS011;6700;51.988;7.646;2024-01-30T13:24:26;9.63;;;6.63;;
13263;SDS011;6700;51.988;7.646;2024-01-30T13:26:54;8.67;;;6.23;;
13263;SDS011;6700;51.988;7.646;2024-01-30T13:29:21;12.40;;;7.00;;
13263;SDS011;6700;51.988;7.646;2024-01-30T13:31:48;9.32;;;6.75;;
13263;SDS011;6700;51.988;7.646;2024-01-30T13:34:15;12.77;;;5.97;;
13263;SDS011;6700;51.988;7.646;2024-01-30T13:36:46;9.73;;;6.60;;
13263;SDS011;6700;51.988;7.646;2024-01-30T13:39:32;10.63;;;6.65;;
13263;SDS011;6700;51.988;7.646;2024-01-30T13:42:05;12.05;;;7.03;;
13263;SDS011;6700;51.988;7.646;2024-01-30T13:48:06;11.88;;;7.13;;
13263;SDS011;6700;51.988;7.646;2024-01-30T13:50:45;8.80;;;6.25;;
13263;SDS011;6700;51.988;7.646;2024-01-30T13:53:13;9.35;;;6.32;;
13263;SDS011;6700;51.988;7.646;2024-01-30T13:55:40;10.77;;;6.95;;
13263;SDS011;6700;51.988;7.646;2024-01-30T13:58:07;9.93;;;6.37;;
13263;SDS011;6700;51.988;7.646;2024-01-30T14:00:40;11.43;;;6.88;;
13263;SDS011;6700;51.988;7.646;2024-01-30T14:03:07;8.68;;;6.90;;
13263;SDS011;6700;51.988;7.646;2024-01-30T14:05:35;8.30;;;6.18;;
13263;SDS011;6700;51.988;7.646;2024-01-30T14:08:02;10.15;;;7.15;;
13263;SDS011;6700;51.988;7.646;2024-01-30T14:10:30;9.02;;;6.50;;
13263;SDS011;6700;51.988;7.646;2024-01-30T14:12:57;10.27;;;6.70;;
13263;SDS011;6700;51.988;7.646;2024-01-30T14:15:24;8.00;;;6.15;;
13263;SDS011;6700;51.988;7.646;2024-01-30T14:17:55;10.90;;;6.45;;
13263;SDS011;6700;51.988;7.646;2024-01-30T14:20:24;11.48;;;6.50;;
13263;SDS011;6700;51.988;7.646;2024-01-30T14:22:51;7.90;;;6.13;;
13263;SDS011;6700;51.988;7.646;2024-01-30T14:25:22;10.05;;;6.63;;
13263;SDS011;6700;51.988;7.646;2024-01-30T14:27:52;10.80;;;6.43;;
13263;SDS011;6700;51.988;7.646;2024-01-30T14:30:46;10.40;;;6.55;;
13263;SDS011;6700;51.988;7.646;2024-01-30T14:33:14;10.88;;;6.95;;
13263;SDS011;6700;51.988;7.646;2024-01-30T14:35:41;7.60;;;6.75;;
13263;SDS011;6700;51.988;7.646;2024-01-30T14:38:09;8.63;;;6.78;;
13263;SDS011;6700;51.988;7.646;2024-01-30T14:40:37;8.65;;;6.70;;
13263;SDS011;6700;51.988;7.646;2024-01-30T14:43:04;9.32;;;7.50;;
13263;SDS011;6700;51.988;7.646;2024-01-30T14:45:31;8.85;;;6.50;;
13263;SDS011;6700;51.988;7.646;2024-01-30T14:47:59;11.70;;;7.72;;
13263;SDS011;6700;51.988;7.646;2024-01-30T14:50:27;9.85;;;6.40;;
13263;SDS011;6700;51.988;7.646;2024-01-30T14:52:55;8.07;;;6.20;;
13263;SDS011;6700;51.988;7.646;2024-01-30T14:55:22;8.75;;;6.35;;
13263;SDS011;6700;51.988;7.646;2024-01-30T14:57:50;8.07;;;6.70;;
13263;SDS011;6700;51.988;7.646;2024-01-30T15:00:17;9.85;;;6.93;;
13263;SDS011;6700;51.988;7.646;2024-01-30T15:02:45;8.80;;;5.80;;
13263;SDS011;6700;51.988;7.646;2024-01-30T15:05:15;10.43;;;6.93;;